createdAt,value
2019-03-15T00:00:37.692Z,91.75
2019-03-15T00:01:18.245Z,91.85
2019-03-15T00:01:58.806Z,92.04
2019-03-15T00:02:39.382Z,91.85
2019-03-15T00:03:19.969Z,91.38
2019-03-15T00:04:00.535Z,91.19
2019-03-15T00:04:41.109Z,91.38
2019-03-15T00:05:21.685Z,91.38
2019-03-15T00:06:02.270Z,91.19
2019-03-15T00:06:42.839Z,91.28
2019-03-15T00:07:23.412Z,91.38
2019-03-15T00:08:03.992Z,91.28
2019-03-15T00:08:44.541Z,90.99
2019-03-15T00:09:25.148Z,91.28
2019-03-15T00:10:05.693Z,91.19
2019-03-15T00:10:46.259Z,91.28
2019-03-15T00:11:26.851Z,91.09
2019-03-15T00:12:07.403Z,91.38
2019-03-15T00:12:47.960Z,91.19
2019-03-15T00:13:28.509Z,90.99
2019-03-15T00:14:09.067Z,90.99
2019-03-15T00:14:49.634Z,91.38
2019-03-15T00:15:30.180Z,90.8
2019-03-15T00:16:10.733Z,91.09
2019-03-15T00:16:51.326Z,90.9
2019-03-15T00:17:31.885Z,90.05
2019-03-15T00:18:12.454Z,90.42
2019-03-15T00:18:53.004Z,90.52
2019-03-15T00:19:33.570Z,90.52
2019-03-15T00:20:14.143Z,90.42
2019-03-15T00:20:54.716Z,90.33
2019-03-15T00:21:35.275Z,90.71
2019-03-15T00:22:15.861Z,90.33
2019-03-15T00:22:56.404Z,90.05
2019-03-15T00:23:36.960Z,89.38
2019-03-15T00:24:17.541Z,89.76
2019-03-15T00:24:58.109Z,89.76
2019-03-15T00:25:38.685Z,90.23
2019-03-15T00:26:19.260Z,89.47
2019-03-15T00:26:59.852Z,89.38
2019-03-15T00:27:40.404Z,89.57
2019-03-15T00:28:20.981Z,89.47
2019-03-15T00:29:01.557Z,89
2019-03-15T00:29:42.110Z,88.9
2019-03-15T00:30:22.690Z,89
2019-03-15T00:31:03.262Z,89.09
2019-03-15T00:31:43.826Z,88.71
2019-03-15T00:32:24.416Z,89.09
2019-03-15T00:33:04.975Z,88.71
2019-03-15T00:33:45.564Z,88.9
2019-03-15T00:34:26.120Z,89
2019-03-15T00:35:06.685Z,89
2019-03-15T00:35:47.278Z,89.76
2019-03-15T00:36:27.831Z,89.28
2019-03-15T00:37:08.385Z,89.57
2019-03-15T00:37:48.938Z,89.38
2019-03-15T00:38:29.487Z,89.28
2019-03-15T00:39:10.039Z,89.47
2019-03-15T00:39:50.623Z,88.9
2019-03-15T00:40:31.170Z,88.9
2019-03-15T00:41:11.768Z,88.9
2019-03-15T00:41:52.331Z,88.43
2019-03-15T00:42:32.882Z,88.34
2019-03-15T00:43:13.444Z,88.53
2019-03-15T00:43:54.044Z,89
2019-03-15T00:44:34.593Z,89.09
2019-03-15T00:45:15.154Z,88.9
2019-03-15T00:45:55.703Z,89.19
2019-03-15T00:46:36.261Z,89
2019-03-15T00:47:17.384Z,89
2019-03-15T00:47:57.400Z,89
2019-03-15T00:48:37.948Z,88.9
2019-03-15T00:49:18.548Z,89.09
2019-03-15T00:49:59.086Z,88.53
2019-03-15T00:50:39.657Z,88.71
2019-03-15T00:51:20.246Z,88.43
2019-03-15T00:52:00.795Z,88.9
2019-03-15T00:52:41.366Z,89.09
2019-03-15T00:53:21.945Z,89
2019-03-15T00:54:02.525Z,89.67
2019-03-15T00:54:43.100Z,89.47
2019-03-15T00:55:23.648Z,88.9
2019-03-15T00:56:04.209Z,89
2019-03-15T00:56:44.781Z,89.28
2019-03-15T00:57:25.337Z,89
2019-03-15T00:58:05.877Z,88.9
2019-03-15T00:58:46.472Z,89.19
2019-03-15T00:59:27.044Z,89
2019-03-15T01:00:07.617Z,89.19
2019-03-15T01:00:48.183Z,89.28
2019-03-15T01:01:28.765Z,89
2019-03-15T01:02:09.337Z,88.81
2019-03-15T01:02:50.113Z,89.09
2019-03-15T01:03:30.487Z,89
2019-03-15T01:04:11.036Z,89
2019-03-15T01:04:51.654Z,88.81
2019-03-15T01:05:32.221Z,89.76
2019-03-15T01:06:12.785Z,89.38
2019-03-15T01:06:53.355Z,89.76
2019-03-15T01:07:33.912Z,89
2019-03-15T01:08:14.484Z,89.09
2019-03-15T01:08:55.068Z,89
2019-03-15T01:09:35.638Z,88.9
2019-03-15T01:10:16.192Z,89.19
2019-03-15T01:10:56.737Z,89
2019-03-15T01:11:37.291Z,88.43
2019-03-15T01:12:17.840Z,88.53
2019-03-15T01:12:58.405Z,88.9
2019-03-15T01:13:38.994Z,88.43
2019-03-15T01:14:19.571Z,88.53
2019-03-15T01:15:00.262Z,89.09
2019-03-15T01:15:41.440Z,89.09
2019-03-15T01:16:21.350Z,89
2019-03-15T01:17:01.955Z,89
2019-03-15T01:17:42.532Z,88.9
2019-03-15T01:18:23.102Z,89.09
2019-03-15T01:19:03.656Z,88.43
2019-03-15T01:19:44.222Z,88.34
2019-03-15T01:20:24.773Z,87.67
2019-03-15T01:21:05.346Z,87.76
2019-03-15T01:21:45.905Z,87.86
2019-03-15T01:22:26.471Z,87.57
2019-03-15T01:23:07.023Z,87.95
2019-03-15T01:23:47.626Z,87.95
2019-03-15T01:24:28.180Z,87.67
2019-03-15T01:25:08.744Z,87.76
2019-03-15T01:25:49.292Z,87.57
2019-03-15T01:26:29.931Z,87.86
2019-03-15T01:27:10.491Z,87.86
2019-03-15T01:27:51.051Z,88.24
2019-03-15T01:28:31.634Z,88.24
2019-03-15T01:29:12.222Z,88.24
2019-03-15T01:29:52.757Z,88.05
2019-03-15T01:30:33.309Z,88.24
2019-03-15T01:31:13.868Z,88.43
2019-03-15T01:31:54.428Z,87.76
2019-03-15T01:32:35.149Z,87.67
2019-03-15T01:33:15.580Z,88.05
2019-03-15T01:33:56.160Z,87.95
2019-03-15T01:34:36.720Z,88.15
2019-03-15T01:35:17.263Z,87.95
2019-03-15T01:35:57.824Z,88.24
2019-03-15T01:36:38.409Z,88.34
2019-03-15T01:37:18.961Z,88.24
2019-03-15T01:37:59.515Z,87.48
2019-03-15T01:38:40.076Z,87.95
2019-03-15T01:39:21.109Z,88.34
2019-03-15T01:40:01.682Z,88.34
2019-03-15T01:40:42.263Z,88.05
2019-03-15T01:41:22.839Z,88.24
2019-03-15T01:42:03.404Z,88.43
2019-03-15T01:42:43.958Z,88.34
2019-03-15T01:43:24.513Z,88.15
2019-03-15T01:44:05.069Z,88.62
2019-03-15T01:44:45.661Z,88.71
2019-03-15T01:45:26.225Z,88.53
2019-03-15T01:46:06.792Z,88.43
2019-03-15T01:46:47.356Z,88.53
2019-03-15T01:47:27.915Z,89
2019-03-15T01:48:08.462Z,89
2019-03-15T01:48:49.003Z,89
2019-03-15T01:49:29.573Z,89.09
2019-03-15T01:50:10.122Z,88.43
2019-03-15T01:50:50.685Z,88.81
2019-03-15T01:51:31.241Z,88.53
2019-03-15T01:52:11.828Z,88.62
2019-03-15T01:52:53.102Z,88.71
2019-03-15T01:53:33.667Z,89.28
2019-03-15T01:54:14.221Z,88.53
2019-03-15T01:54:54.788Z,88.53
2019-03-15T01:55:35.372Z,88.43
2019-03-15T01:56:15.949Z,88.24
2019-03-15T01:56:56.535Z,88.71
2019-03-15T01:57:37.075Z,89.09
2019-03-15T01:58:17.646Z,89
2019-03-15T01:58:58.197Z,88.81
2019-03-15T01:59:38.731Z,88.9
2019-03-15T02:00:19.306Z,89.09
2019-03-15T02:00:59.931Z,88.9
2019-03-15T02:01:40.460Z,88.81
2019-03-15T02:02:21.042Z,89.57
2019-03-15T02:03:02.371Z,89.57
2019-03-15T02:03:42.166Z,89.47
2019-03-15T02:04:22.757Z,89.19
2019-03-15T02:05:03.335Z,90.05
2019-03-15T02:05:43.890Z,89.95
2019-03-15T02:06:24.461Z,89.67
2019-03-15T02:07:05.017Z,89.67
2019-03-15T02:07:45.572Z,89.95
2019-03-15T02:08:26.648Z,90.05
2019-03-15T02:09:09.197Z,90.42
2019-03-15T02:09:47.255Z,90.42
2019-03-15T02:10:27.819Z,90.42
2019-03-15T02:11:08.380Z,90.33
2019-03-15T02:11:49.017Z,90.61
2019-03-15T02:12:29.500Z,90.71
2019-03-15T02:13:10.063Z,90.42
2019-03-15T02:13:50.620Z,90.52
2019-03-15T02:14:31.175Z,90.52
2019-03-15T02:15:11.768Z,90.42
2019-03-15T02:15:52.334Z,90.33
2019-03-15T02:16:32.912Z,90.42
2019-03-15T02:17:13.485Z,90.8
2019-03-15T02:17:54.052Z,90.42
2019-03-15T02:18:34.626Z,90.23
2019-03-15T02:19:15.190Z,90.05
2019-03-15T02:19:55.776Z,90.61
2019-03-15T02:20:36.324Z,90.8
2019-03-15T02:21:16.937Z,90.52
2019-03-15T02:21:57.481Z,90.52
2019-03-15T02:22:38.099Z,90.52
2019-03-15T02:23:18.640Z,90.33
2019-03-15T02:23:59.200Z,90.52
2019-03-15T02:24:39.778Z,90.33
2019-03-15T02:25:20.356Z,90.05
2019-03-15T02:26:00.918Z,91.19
2019-03-15T02:26:41.480Z,91.09
2019-03-15T02:27:22.055Z,90.9
2019-03-15T02:28:02.633Z,90.9
2019-03-15T02:28:43.222Z,90.99
2019-03-15T02:29:23.786Z,91.19
2019-03-15T02:30:04.332Z,90.8
2019-03-15T02:30:44.887Z,90.42
2019-03-15T02:31:25.455Z,90.42
2019-03-15T02:32:06.014Z,90.42
2019-03-15T02:32:46.591Z,90.52
2019-03-15T02:33:27.144Z,90.52
2019-03-15T02:34:07.704Z,90.8
2019-03-15T02:34:48.257Z,90.23
2019-03-15T02:35:28.842Z,90.33
2019-03-15T02:36:09.382Z,89.76
2019-03-15T02:36:49.957Z,89.76
2019-03-15T02:37:30.505Z,89.95
2019-03-15T02:38:11.063Z,89.95
2019-03-15T02:38:51.616Z,89.86
2019-03-15T02:39:32.182Z,89.76
2019-03-15T02:40:12.972Z,90.33
2019-03-15T02:40:53.296Z,89.76
2019-03-15T02:41:33.899Z,89.47
2019-03-15T02:42:14.450Z,89.86
2019-03-15T02:42:55.024Z,89.95
2019-03-15T02:43:35.608Z,90.42
2019-03-15T02:44:16.190Z,89.76
2019-03-15T02:44:56.753Z,90.14
2019-03-15T02:45:37.334Z,90.05
2019-03-15T02:46:18.006Z,90.23
2019-03-15T02:46:58.568Z,90.61
2019-03-15T02:47:39.146Z,89.95
2019-03-15T02:48:19.755Z,90.14
2019-03-15T02:49:00.293Z,89.76
2019-03-15T02:49:40.837Z,90.05
2019-03-15T02:50:21.402Z,89.67
2019-03-15T02:51:01.988Z,89.76
2019-03-15T02:51:42.561Z,90.14
2019-03-15T02:52:23.120Z,89.95
2019-03-15T02:53:03.674Z,89.86
2019-03-15T02:53:44.238Z,89.95
2019-03-15T02:54:24.793Z,90.05
2019-03-15T02:55:05.358Z,89.57
2019-03-15T02:55:45.910Z,89.86
2019-03-15T02:56:26.461Z,90.33
2019-03-15T02:57:07.056Z,90.14
2019-03-15T02:57:47.600Z,90.05
2019-03-15T02:58:28.350Z,89.57
2019-03-15T02:59:08.757Z,89.76
2019-03-15T02:59:49.349Z,89.67
2019-03-15T03:00:29.927Z,90.14
2019-03-15T03:01:10.479Z,89.47
2019-03-15T03:01:51.034Z,89.47
2019-03-15T03:02:31.598Z,89
2019-03-15T03:03:12.169Z,89.09
2019-03-15T03:03:52.730Z,88.43
2019-03-15T03:04:33.304Z,88.43
2019-03-15T03:05:13.919Z,88.71
2019-03-15T03:05:54.439Z,88.53
2019-03-15T03:06:35.023Z,88.43
2019-03-15T03:07:15.598Z,88.15
2019-03-15T03:07:56.231Z,88.43
2019-03-15T03:08:36.807Z,88.05
2019-03-15T03:09:17.388Z,87.86
2019-03-15T03:09:57.961Z,87.86
2019-03-15T03:10:38.562Z,88.05
2019-03-15T03:11:19.150Z,87.67
2019-03-15T03:11:59.701Z,87.57
2019-03-15T03:12:40.266Z,87.86
2019-03-15T03:13:20.816Z,87.01
2019-03-15T03:14:01.391Z,85.96
2019-03-15T03:14:41.977Z,86.05
2019-03-15T03:15:22.542Z,86.63
2019-03-15T03:16:03.099Z,86.63
2019-03-15T03:16:43.649Z,86.91
2019-03-15T03:17:24.250Z,87.01
2019-03-15T03:18:04.794Z,86.15
2019-03-15T03:18:45.410Z,86.15
2019-03-15T03:19:26.006Z,85.68
2019-03-15T03:20:06.554Z,86.05
2019-03-15T03:20:48.161Z,86.15
2019-03-15T03:21:27.725Z,86.43
2019-03-15T03:22:09.032Z,86.43
2019-03-15T03:22:48.859Z,85.96
2019-03-15T03:23:30.690Z,86.15
2019-03-15T03:24:09.994Z,85.68
2019-03-15T03:24:51.004Z,85.86
2019-03-15T03:25:31.137Z,86.05
2019-03-15T03:26:13.518Z,85.58
2019-03-15T03:26:53.902Z,85.11
2019-03-15T03:27:34.518Z,84.91
2019-03-15T03:28:15.075Z,85.39
2019-03-15T03:28:55.619Z,85.96
2019-03-15T03:29:36.204Z,85.58
2019-03-15T03:30:17.365Z,86.34
2019-03-15T03:30:57.381Z,85.96
2019-03-15T03:31:37.939Z,86.53
2019-03-15T03:32:18.510Z,86.63
2019-03-15T03:32:59.058Z,86.91
2019-03-15T03:33:40.856Z,87.19
2019-03-15T03:34:20.214Z,87.57
2019-03-15T03:35:01.034Z,87.86
2019-03-15T03:35:41.346Z,87.86
2019-03-15T03:36:21.914Z,87.76
2019-03-15T03:37:02.465Z,87.67
2019-03-15T03:37:43.060Z,88.43
2019-03-15T03:38:23.625Z,87.95
2019-03-15T03:39:04.332Z,88.43
2019-03-15T03:39:44.738Z,88.9
2019-03-15T03:40:25.302Z,89
2019-03-15T03:41:05.872Z,89.38
2019-03-15T03:41:46.430Z,89.09
2019-03-15T03:42:26.998Z,89.76
2019-03-15T03:43:07.582Z,90.52
2019-03-15T03:43:48.151Z,90.52
2019-03-15T03:44:28.737Z,90.71
2019-03-15T03:45:09.298Z,90.8
2019-03-15T03:45:50.141Z,91.09
2019-03-15T03:46:30.410Z,91.28
2019-03-15T03:47:10.984Z,91.28
2019-03-15T03:47:51.578Z,91.28
2019-03-15T03:48:32.142Z,91.94
2019-03-15T03:49:12.711Z,91.94
2019-03-15T03:49:53.618Z,91.85
2019-03-15T03:50:33.814Z,92.32
2019-03-15T03:51:14.380Z,92.13
2019-03-15T03:51:54.935Z,92.23
2019-03-15T03:52:35.509Z,92.04
2019-03-15T03:53:16.095Z,92.13
2019-03-15T03:53:56.661Z,92.13
2019-03-15T03:54:37.240Z,92.71
2019-03-15T03:55:17.790Z,92.61
2019-03-15T03:55:58.355Z,92.51
2019-03-15T03:56:38.904Z,92.8
2019-03-15T03:57:19.504Z,92.71
2019-03-15T03:58:00.065Z,92.8
2019-03-15T03:58:40.639Z,92.71
2019-03-15T03:59:21.206Z,93.08
2019-03-15T04:00:01.775Z,92.99
2019-03-15T04:00:42.330Z,93.65
2019-03-15T04:01:22.912Z,92.99
2019-03-15T04:02:03.475Z,93.46
2019-03-15T04:02:44.096Z,93.46
2019-03-15T04:03:24.612Z,93.18
2019-03-15T04:04:05.175Z,93.75
2019-03-15T04:04:45.745Z,93.46
2019-03-15T04:05:26.398Z,93.65
2019-03-15T04:06:06.970Z,93.46
2019-03-15T04:06:47.541Z,93.75
2019-03-15T04:07:28.129Z,93.46
2019-03-15T04:08:08.674Z,92.99
2019-03-15T04:08:49.249Z,92.99
2019-03-15T04:09:29.814Z,92.99
2019-03-15T04:10:10.382Z,92.71
2019-03-15T04:10:50.955Z,92.71
2019-03-15T04:11:31.532Z,92.51
2019-03-15T04:12:12.080Z,92.51
2019-03-15T04:12:52.646Z,92.8
2019-03-15T04:13:33.186Z,92.61
2019-03-15T04:14:13.784Z,92.99
2019-03-15T04:14:54.330Z,92.71
2019-03-15T04:15:34.902Z,92.99
2019-03-15T04:16:15.463Z,92.71
2019-03-15T04:16:56.003Z,92.51
2019-03-15T04:17:36.584Z,92.61
2019-03-15T04:18:17.142Z,92.04
2019-03-15T04:18:57.723Z,92.23
2019-03-15T04:19:38.288Z,92.42
2019-03-15T04:20:18.845Z,92.32
2019-03-15T04:20:59.399Z,91.85
2019-03-15T04:21:40.078Z,91.75
2019-03-15T04:22:20.607Z,91.47
2019-03-15T04:23:01.169Z,91.85
2019-03-15T04:23:41.730Z,91.85
2019-03-15T04:24:22.310Z,91.38
2019-03-15T04:25:02.862Z,91.47
2019-03-15T04:25:43.460Z,91.28
2019-03-15T04:26:24.021Z,91.09
2019-03-15T04:27:04.571Z,91.09
2019-03-15T04:27:45.147Z,91.19
2019-03-15T04:28:25.700Z,91.28
2019-03-15T04:29:06.267Z,91.19
2019-03-15T04:29:46.848Z,90.8
2019-03-15T04:30:27.419Z,91.28
2019-03-15T04:31:08.008Z,91.09
2019-03-15T04:31:48.567Z,90.61
2019-03-15T04:32:29.141Z,90.99
2019-03-15T04:33:09.761Z,90.9
2019-03-15T04:33:50.316Z,91.19
2019-03-15T04:34:30.880Z,90.61
2019-03-15T04:35:11.433Z,90.52
2019-03-15T04:35:52.171Z,90.52
2019-03-15T04:36:32.559Z,90.23
2019-03-15T04:37:13.132Z,90.52
2019-03-15T04:37:53.698Z,90.61
2019-03-15T04:38:34.261Z,90.61
2019-03-15T04:39:14.815Z,90.61
2019-03-15T04:39:55.377Z,90.14
2019-03-15T04:40:35.936Z,90.61
2019-03-15T04:41:16.495Z,90.05
2019-03-15T04:41:57.059Z,90.14
2019-03-15T04:42:37.628Z,89.95
2019-03-15T04:43:18.189Z,89.76
2019-03-15T04:43:58.762Z,90.05
2019-03-15T04:44:39.338Z,90.05
2019-03-15T04:45:19.893Z,89.95
2019-03-15T04:46:00.456Z,89.47
2019-03-15T04:46:41.058Z,89.76
2019-03-15T04:47:21.618Z,89.57
2019-03-15T04:48:02.193Z,88.71
2019-03-15T04:48:42.762Z,88.9
2019-03-15T04:49:23.353Z,89
2019-03-15T04:50:03.928Z,88.71
2019-03-15T04:50:44.480Z,89.09
2019-03-15T04:51:25.072Z,88.9
2019-03-15T04:52:05.634Z,88.9
2019-03-15T04:52:46.234Z,88.9
2019-03-15T04:53:26.789Z,88.81
2019-03-15T04:54:07.333Z,89.09
2019-03-15T04:54:47.903Z,89.09
2019-03-15T04:55:28.491Z,88.53
2019-03-15T04:56:09.083Z,88.53
2019-03-15T04:56:49.644Z,88.62
2019-03-15T04:57:30.215Z,87.95
2019-03-15T04:58:10.772Z,88.53
2019-03-15T04:58:51.379Z,88.62
2019-03-15T04:59:31.965Z,88.53
2019-03-15T05:00:12.518Z,88.53
2019-03-15T05:00:53.084Z,89.28
2019-03-15T05:01:33.647Z,88.9
2019-03-15T05:02:14.202Z,89
2019-03-15T05:02:54.770Z,89
2019-03-15T05:03:35.339Z,88.9
2019-03-15T05:04:15.918Z,89.09
2019-03-15T05:04:56.491Z,88.9
2019-03-15T05:05:37.064Z,88.53
2019-03-15T05:06:17.658Z,88.53
2019-03-15T05:06:58.218Z,89.09
2019-03-15T05:07:38.773Z,89
2019-03-15T05:08:19.320Z,88.9
2019-03-15T05:08:59.928Z,89.28
2019-03-15T05:09:40.483Z,89
2019-03-15T05:10:21.046Z,88.9
2019-03-15T05:11:01.615Z,88.9
2019-03-15T05:11:42.174Z,88.71
2019-03-15T05:12:22.758Z,89.09
2019-03-15T05:13:03.323Z,88.81
2019-03-15T05:13:43.925Z,89.47
2019-03-15T05:14:24.479Z,89.47
2019-03-15T05:15:05.034Z,89.67
2019-03-15T05:15:45.603Z,89.28
2019-03-15T05:16:26.160Z,89.47
2019-03-15T05:17:06.710Z,89.28
2019-03-15T05:17:47.305Z,89.47
2019-03-15T05:18:27.863Z,89.38
2019-03-15T05:19:08.434Z,89.19
2019-03-15T05:19:48.997Z,89.76
2019-03-15T05:20:29.562Z,89.67
2019-03-15T05:21:10.125Z,89.47
2019-03-15T05:21:50.701Z,89.67
2019-03-15T05:22:31.288Z,89.57
2019-03-15T05:23:11.869Z,89.76
2019-03-15T05:23:52.456Z,89.76
2019-03-15T05:24:33.048Z,90.14
2019-03-15T05:25:13.646Z,90.52
2019-03-15T05:25:54.208Z,90.42
2019-03-15T05:26:34.803Z,90.61
2019-03-15T05:27:15.380Z,91.09
2019-03-15T05:27:55.971Z,90.9
2019-03-15T05:28:36.565Z,90.61
2019-03-15T05:29:17.112Z,90.99
2019-03-15T05:29:57.675Z,91.47
2019-03-15T05:30:38.229Z,91.28
2019-03-15T05:31:18.840Z,90.71
2019-03-15T05:31:59.405Z,91.28
2019-03-15T05:32:39.975Z,91.38
2019-03-15T05:33:20.525Z,91.47
2019-03-15T05:34:01.081Z,90.99
2019-03-15T05:34:41.701Z,91.66
2019-03-15T05:35:22.270Z,91.38
2019-03-15T05:36:02.834Z,91.94
2019-03-15T05:36:43.409Z,91.85
2019-03-15T05:37:23.995Z,91.85
2019-03-15T05:38:04.545Z,92.04
2019-03-15T05:38:45.128Z,91.75
2019-03-15T05:39:25.709Z,91.94
2019-03-15T05:40:06.262Z,91.38
2019-03-15T05:40:46.827Z,91.38
2019-03-15T05:41:27.397Z,91.09
2019-03-15T05:42:07.957Z,91.28
2019-03-15T05:42:48.519Z,90.8
2019-03-15T05:43:29.076Z,91.47
2019-03-15T05:44:09.659Z,90.8
2019-03-15T05:44:50.223Z,90.8
2019-03-15T05:45:30.785Z,90.99
2019-03-15T05:46:11.404Z,91.09
2019-03-15T05:46:51.955Z,90.05
2019-03-15T05:47:32.499Z,90.52
2019-03-15T05:48:13.065Z,90.14
2019-03-15T05:48:53.629Z,90.23
2019-03-15T05:49:34.221Z,89.95
2019-03-15T05:50:14.801Z,90.14
2019-03-15T05:50:55.341Z,90.05
2019-03-15T05:51:35.916Z,90.14
2019-03-15T05:52:16.477Z,90.14
2019-03-15T05:52:57.044Z,90.23
2019-03-15T05:53:37.610Z,90.05
2019-03-15T05:54:18.170Z,89.95
2019-03-15T05:54:58.788Z,89.95
2019-03-15T05:55:39.291Z,89.76
2019-03-15T05:56:19.856Z,90.23
2019-03-15T05:57:00.402Z,90.14
2019-03-15T05:57:40.968Z,90.33
2019-03-15T05:58:22.017Z,89.47
2019-03-15T05:59:02.216Z,89.76
2019-03-15T05:59:42.950Z,90.05
2019-03-15T06:00:24.590Z,89.38
2019-03-15T06:01:04.299Z,89.38
2019-03-15T06:01:44.996Z,89.47
2019-03-15T06:02:25.518Z,89.19
2019-03-15T06:03:06.069Z,89
2019-03-15T06:03:48.721Z,88.71
2019-03-15T06:04:27.241Z,89.09
2019-03-15T06:05:08.936Z,89
2019-03-15T06:05:48.301Z,88.9
2019-03-15T06:06:28.867Z,88.81
2019-03-15T06:07:09.423Z,88.9
2019-03-15T06:07:49.988Z,88.34
2019-03-15T06:08:30.587Z,89.28
2019-03-15T06:09:11.137Z,88.9
2019-03-15T06:09:51.688Z,89
2019-03-15T06:10:32.254Z,89.28
2019-03-15T06:11:12.800Z,89.28
2019-03-15T06:11:53.394Z,89.38
2019-03-15T06:12:34.023Z,89.76
2019-03-15T06:13:14.674Z,89.57
2019-03-15T06:13:55.281Z,89.95
2019-03-15T06:14:35.985Z,90.14
2019-03-15T06:15:16.603Z,90.8
2019-03-15T06:15:57.142Z,90.42
2019-03-15T06:16:37.695Z,90.42
2019-03-15T06:17:18.293Z,90.9
2019-03-15T06:17:58.871Z,91.09
2019-03-15T06:18:39.449Z,91.09
2019-03-15T06:19:20.017Z,90.8
2019-03-15T06:20:00.606Z,90.8
2019-03-15T06:20:41.167Z,90.9
2019-03-15T06:21:21.729Z,91.19
2019-03-15T06:22:02.313Z,90.8
2019-03-15T06:22:42.869Z,91.09
2019-03-15T06:23:23.452Z,90.99
2019-03-15T06:24:04.013Z,91.38
2019-03-15T06:24:44.581Z,90.9
2019-03-15T06:25:25.161Z,90.9
2019-03-15T06:26:05.729Z,90.99
2019-03-15T06:26:46.308Z,90.99
2019-03-15T06:27:26.886Z,90.8
2019-03-15T06:28:07.443Z,90.99
2019-03-15T06:28:48.288Z,90.71
2019-03-15T06:29:28.850Z,90.99
2019-03-15T06:30:09.447Z,91.09
2019-03-15T06:30:49.995Z,90.33
2019-03-15T06:31:30.544Z,90.8
2019-03-15T06:32:11.131Z,90.42
2019-03-15T06:32:51.685Z,90.52
2019-03-15T06:33:32.268Z,90.14
2019-03-15T06:34:12.819Z,89.76
2019-03-15T06:34:53.471Z,90.23
2019-03-15T06:35:34.039Z,90.05
2019-03-15T06:36:14.843Z,89.57
2019-03-15T06:36:56.844Z,90.05
2019-03-15T06:37:37.589Z,90.14
2019-03-15T06:38:18.223Z,90.05
2019-03-15T06:38:58.941Z,89.76
2019-03-15T06:39:39.513Z,90.05
2019-03-15T06:40:20.101Z,89.76
2019-03-15T06:41:00.657Z,89.57
2019-03-15T06:41:41.248Z,89.47
2019-03-15T06:42:21.830Z,89
2019-03-15T06:43:02.453Z,88.9
2019-03-15T06:43:43.098Z,89.09
2019-03-15T06:44:23.743Z,87.95
2019-03-15T06:45:04.381Z,88.24
2019-03-15T06:45:45.077Z,88.43
2019-03-15T06:46:25.772Z,88.15
2019-03-15T06:47:06.469Z,87.86
2019-03-15T06:47:47.089Z,88.05
2019-03-15T06:48:28.882Z,88.15
2019-03-15T06:49:09.500Z,88.24
2019-03-15T06:49:50.080Z,88.24
2019-03-15T06:50:30.667Z,88.05
2019-03-15T06:51:11.247Z,88.15
2019-03-15T06:51:51.858Z,88.34
2019-03-15T06:52:32.475Z,87.95
2019-03-15T06:53:14.508Z,88.43
2019-03-15T06:53:55.677Z,88.43
2019-03-15T06:54:36.340Z,88.47
2019-03-15T06:55:16.938Z,88.57
2019-03-15T06:55:57.570Z,88.47
2019-03-15T06:56:38.114Z,88.28
2019-03-15T06:57:18.692Z,88.09
2019-03-15T06:57:59.272Z,87.81
2019-03-15T06:58:39.812Z,88.09
2019-03-15T06:59:20.367Z,88.09
2019-03-15T07:00:01.027Z,87.9
2019-03-15T07:00:41.582Z,87.52
2019-03-15T07:01:22.133Z,88.09
2019-03-15T07:02:02.703Z,88.19
2019-03-15T07:02:43.295Z,88
2019-03-15T07:03:23.904Z,87.81
2019-03-15T07:04:04.465Z,87.71
2019-03-15T07:04:45.080Z,87.67
2019-03-15T07:05:25.629Z,87.67
2019-03-15T07:06:06.209Z,88.19
2019-03-15T07:06:46.779Z,87.81
2019-03-15T07:07:27.354Z,87.81
2019-03-15T07:08:07.926Z,87.57
2019-03-15T07:08:48.489Z,87.9
2019-03-15T07:09:30.828Z,87.9
2019-03-15T07:10:09.929Z,87.9
2019-03-15T07:10:50.347Z,87.81
2019-03-15T07:11:30.914Z,87.86
2019-03-15T07:12:11.645Z,87.76
2019-03-15T07:12:53.169Z,87.52
2019-03-15T07:13:33.750Z,87.62
2019-03-15T07:14:14.522Z,87.52
2019-03-15T07:14:56.964Z,87.24
2019-03-15T07:15:36.537Z,86.76
2019-03-15T07:16:16.653Z,86.95
2019-03-15T07:16:58.790Z,86.76
2019-03-15T07:17:39.567Z,87.43
2019-03-15T07:18:20.030Z,86.76
2019-03-15T07:19:00.900Z,86
2019-03-15T07:19:41.472Z,86.53
2019-03-15T07:20:22.067Z,86.47
2019-03-15T07:21:02.640Z,86.57
2019-03-15T07:21:43.229Z,86.29
2019-03-15T07:22:23.931Z,86.29
2019-03-15T07:23:04.515Z,86.38
2019-03-15T07:23:45.168Z,86.38
2019-03-15T07:24:25.886Z,85.91
2019-03-15T07:25:06.409Z,86.1
2019-03-15T07:25:46.987Z,86.67
2019-03-15T07:26:27.996Z,86.47
2019-03-15T07:27:13.061Z,85.81
2019-03-15T07:27:49.136Z,85.91
2019-03-15T07:28:29.698Z,85.43
2019-03-15T07:29:10.256Z,85.62
2019-03-15T07:29:50.982Z,85.53
2019-03-15T07:30:31.866Z,84.95
2019-03-15T07:31:12.807Z,84.67
2019-03-15T07:31:53.636Z,84.01
2019-03-15T07:32:34.471Z,84.29
2019-03-15T07:33:15.290Z,84.39
2019-03-15T07:33:56.148Z,84.2
2019-03-15T07:34:37.018Z,83.82
2019-03-15T07:35:18.615Z,83.91
2019-03-15T07:35:59.674Z,83.34
2019-03-15T07:36:40.162Z,83.44
2019-03-15T07:37:21.529Z,83.06
2019-03-15T07:38:01.706Z,83.06
2019-03-15T07:38:42.280Z,82.96
2019-03-15T07:39:22.922Z,83.62
2019-03-15T07:40:03.802Z,83.44
2019-03-15T07:40:44.516Z,83.34
2019-03-15T07:41:25.638Z,83.34
2019-03-15T07:42:06.918Z,83.15
2019-03-15T07:42:46.985Z,82.96
2019-03-15T07:43:27.838Z,82.96
2019-03-15T07:44:08.513Z,82.77
2019-03-15T07:44:49.253Z,82.2
2019-03-15T07:45:29.814Z,82.29
2019-03-15T07:46:10.488Z,82.01
2019-03-15T07:46:51.285Z,82.1
2019-03-15T07:47:31.817Z,82.1
2019-03-15T07:48:21.613Z,82.15
2019-03-15T07:48:52.953Z,81.96
2019-03-15T07:49:35.354Z,81.35
2019-03-15T07:50:16.062Z,81.01
2019-03-15T07:50:56.634Z,80.91
2019-03-15T07:51:37.200Z,81.1
2019-03-15T07:52:17.744Z,80.44
2019-03-15T07:52:58.465Z,80.24
2019-03-15T07:53:39.097Z,80.24
2019-03-15T07:54:19.682Z,80.24
2019-03-15T07:55:00.342Z,80.24
2019-03-15T07:55:40.998Z,79.49
2019-03-15T07:56:21.543Z,79.77
2019-03-15T07:57:02.275Z,80.15
2019-03-15T07:57:42.824Z,79.58
2019-03-15T07:58:23.374Z,79.39
2019-03-15T07:59:03.944Z,79.01
2019-03-15T07:59:44.549Z,78.72
2019-03-15T08:00:25.085Z,78.72
2019-03-15T08:01:05.640Z,78.53
2019-03-15T08:01:46.335Z,78.53
2019-03-15T08:02:26.913Z,78.63
2019-03-15T08:03:07.467Z,78.72
2019-03-15T08:03:48.031Z,77.97
2019-03-15T08:04:29.227Z,77.87
2019-03-15T08:05:09.171Z,78.34
2019-03-15T08:05:49.741Z,78.72
2019-03-15T08:06:34.913Z,78.48
2019-03-15T08:07:10.875Z,78.77
2019-03-15T08:07:51.429Z,78
2019-03-15T08:08:32.101Z,77.24
2019-03-15T08:09:12.615Z,76.76
2019-03-15T08:09:53.210Z,76.76
2019-03-15T08:10:33.766Z,76.48
2019-03-15T08:11:14.410Z,76.86
2019-03-15T08:11:54.965Z,76.86
2019-03-15T08:12:38.528Z,76.39
2019-03-15T08:13:16.144Z,76.2
2019-03-15T08:13:56.728Z,75.91
2019-03-15T08:14:37.349Z,75.91
2019-03-15T08:15:17.952Z,76.29
2019-03-15T08:15:58.534Z,76.1
2019-03-15T08:16:39.101Z,76.67
2019-03-15T08:17:19.644Z,76.96
2019-03-15T08:18:00.214Z,76.96
2019-03-15T08:18:40.779Z,76.57
2019-03-15T08:19:21.529Z,76.1
2019-03-15T08:20:02.071Z,76.1
2019-03-15T08:20:42.737Z,76.63
2019-03-15T08:21:23.302Z,77.01
2019-03-15T08:22:03.900Z,76.57
2019-03-15T08:22:44.500Z,76.82
2019-03-15T08:23:25.107Z,77.49
2019-03-15T08:24:05.671Z,77.24
2019-03-15T08:24:51.194Z,77.3
2019-03-15T08:25:26.856Z,77.34
2019-03-15T08:26:07.414Z,77.34
2019-03-15T08:26:48.020Z,76.76
2019-03-15T08:27:28.591Z,76.86
2019-03-15T08:28:09.154Z,76.86
2019-03-15T08:28:49.720Z,76.96
2019-03-15T08:29:30.308Z,76.92
2019-03-15T08:30:10.869Z,76.39
2019-03-15T08:30:51.466Z,76.67
2019-03-15T08:31:36.768Z,76.76
2019-03-15T08:32:17.318Z,77.39
2019-03-15T08:33:09.400Z,77.15
2019-03-15T08:33:40.749Z,78
2019-03-15T08:34:21.344Z,77.58
2019-03-15T08:35:03.709Z,77.87
2019-03-15T08:35:42.572Z,77.91
2019-03-15T08:36:23.120Z,77.34
2019-03-15T08:37:03.810Z,77.49
2019-03-15T08:37:44.283Z,77.72
2019-03-15T08:38:24.887Z,78.06
2019-03-15T08:39:05.998Z,78.91
2019-03-15T08:39:46.612Z,77.81
2019-03-15T08:40:27.176Z,78.16
2019-03-15T08:41:07.756Z,78
2019-03-15T08:41:48.298Z,77.72
2019-03-15T08:42:28.884Z,78
2019-03-15T08:43:09.443Z,77.72
2019-03-15T08:43:50.057Z,77.72
2019-03-15T08:44:30.602Z,77.72
2019-03-15T08:45:11.180Z,78
2019-03-15T08:45:51.753Z,77.34
2019-03-15T08:46:32.359Z,77.53
2019-03-15T08:47:12.922Z,77.81
2019-03-15T08:47:53.520Z,77.68